Story City, IA (50248)

10:07 PM CDT on July 28, 2015 (GMT -0500)
Prairie Ridge | | Change Station
CLOSE
Current Station
Personal Weather Station
Location: Story City, IA
Elevation: 1010 ft
Nearby Weather Stations

Elev 1010 ft 42.19 °N, 93.58 °W | Updated 45 seconds ago

Overcast
Overcast
75.7 °F
Feels Like 75 °F
N
9.8
Wind Variable Wind from SSW
Gusts 12.3 mph

Today
High -- | Low -- °F
--% Chance of Precip.
Yesterday
High -- | Low -- °F
Precip. -- in
6:03 AM 8:37 PM
Waxing Gibbous, 93% visible
Pressure 29.94 in
Visibility 5.0 miles
Clouds Scattered Clouds 3200 ft
Mostly Cloudy 4800 ft
Overcast 8000 ft
Heat Index 75 °F
Dew Point 74 °F
Humidity 93%
Rainfall 0.76 in
Snow Depth Not available.
UV 0.0 out of 12
Pollen 4.90 out of 12
Air Quality Not available.
Flu Activity Not available.
METAR KAMW 290253Z AUTO 13004KT 5SM TSRA BR SCT032 BKN048 OVC080 22/22 A2997 RMK AO2 LTG DSNT ALQDS TSB10E25B31 SLP139 P0008 60009 T02170217 53029 $

More Conditions Fewer Conditions

Pressure 29.94 in
Visibility 5.0 miles
Clouds Scattered Clouds 3200 ft
Mostly Cloudy 4800 ft
Overcast 8000 ft
Heat Index 75 °F
Dew Point 74 °F
Humidity 93%
Rainfall 0.76 in
Snow Depth Not available.
UV 0.0 out of 12
Pollen 4.90 out of 12
Air Quality Not available.
Flu Activity Not available.
METAR KAMW 290253Z AUTO 13004KT 5SM TSRA BR SCT032 BKN048 OVC080 22/22 A2997 RMK AO2 LTG DSNT ALQDS TSB10E25B31 SLP139 P0008 60009 T02170217 53029 $

More Conditions Fewer Conditions

10-Day Weather Forecast

×

Almanac

Astronomy

Jul. 28, 2015 Rise Set
Actual Time
Civil Twilight
Nautical Twilight
Astronomical Twilight
Moon
Length of Visible Light
Length of Day
Tomorrow will be .
, % of the Moon is Illuminated

Today's Extremes

State Highs State Lows

Community

WunderPhotos

Upload Photos

1,842,020 photos uploaded!

WunderBlogs® & News

Nearby

Air Quality

  Air Quality AQ Index Pollutant
Not available.

Snow Depth

Station Depth Elevation

Earthquake Activity

City Distance Mag. Time & Date
Minimum magnitude displayed is 2.5.

Coastal Water Temperatures

Place Temperature

Stations

Nearby Weather Stations

Station Location Temp. Windchill Dew Point Humidity Wind Precip. Elev Updated Type